createdAt,value
2023-05-13T00:00:48.372Z,3.80
2023-05-13T00:03:15.494Z,3.40
2023-05-13T00:05:42.630Z,3.57
2023-05-13T00:08:09.732Z,3.43
2023-05-13T00:10:36.846Z,3.73
2023-05-13T00:13:03.922Z,3.53
2023-05-13T00:15:30.832Z,4.03
2023-05-13T00:17:57.995Z,4.20
2023-05-13T00:20:25.099Z,3.73
2023-05-13T00:22:52.227Z,4.23
2023-05-13T00:25:19.258Z,4.40
2023-05-13T00:27:46.392Z,4.17
2023-05-13T00:30:13.674Z,4.13
2023-05-13T00:32:40.795Z,4.37
2023-05-13T00:35:09.252Z,5.07
2023-05-13T00:37:36.285Z,5.10
2023-05-13T00:40:03.471Z,5.40
2023-05-13T00:42:30.509Z,4.70
2023-05-13T00:44:57.540Z,5.00
2023-05-13T00:47:24.586Z,4.50
2023-05-13T00:49:52.109Z,4.70
2023-05-13T00:52:19.151Z,4.53
2023-05-13T00:54:46.215Z,4.20
2023-05-13T00:57:13.330Z,4.40
2023-05-13T00:59:40.459Z,4.20
2023-05-13T01:02:32.758Z,4.77
2023-05-13T01:05:33.654Z,4.07
2023-05-13T01:08:21.965Z,4.90
2023-05-13T01:11:01.226Z,4.40
2023-05-13T01:13:32.281Z,4.53
2023-05-13T01:16:06.441Z,4.73
2023-05-13T01:18:37.753Z,4.27
2023-05-13T01:21:06.099Z,5.00
2023-05-13T01:23:33.057Z,4.67
2023-05-13T01:26:00.179Z,4.77
2023-05-13T01:28:27.345Z,4.50
2023-05-13T01:30:57.158Z,4.27
2023-05-13T01:33:26.251Z,4.90
2023-05-13T01:35:53.422Z,4.87
2023-05-13T01:38:21.634Z,4.77
2023-05-13T01:40:53.689Z,4.57
2023-05-13T01:43:20.891Z,4.67
2023-05-13T01:45:47.920Z,4.70
2023-05-13T01:48:15.702Z,4.60
2023-05-13T01:50:46.833Z,4.70
2023-05-13T01:53:14.042Z,4.60
2023-05-13T01:55:41.413Z,4.80
2023-05-13T01:58:09.523Z,4.10
2023-05-13T02:00:36.695Z,4.23
2023-05-13T02:03:04.098Z,4.80
2023-05-13T02:05:33.032Z,4.57
2023-05-13T02:08:03.610Z,4.13
2023-05-13T02:10:31.142Z,5.13
2023-05-13T02:13:00.854Z,4.73
2023-05-13T02:15:27.919Z,4.80
2023-05-13T02:17:55.004Z,4.90
2023-05-13T02:20:22.286Z,4.43
2023-05-13T02:22:49.520Z,4.63
2023-05-13T02:25:16.249Z,4.43
2023-05-13T02:27:43.276Z,4.90
2023-05-13T02:30:10.619Z,5.00
2023-05-13T02:32:37.749Z,4.97
2023-05-13T02:35:06.005Z,4.70
2023-05-13T02:37:33.060Z,4.50
2023-05-13T02:40:03.317Z,4.90
2023-05-13T02:42:30.441Z,4.57
2023-05-13T02:44:57.533Z,4.63
2023-05-13T02:47:26.311Z,5.00
2023-05-13T02:49:54.682Z,5.00
2023-05-13T02:52:22.896Z,5.20
2023-05-13T02:54:50.089Z,5.23
2023-05-13T02:57:17.417Z,5.33
2023-05-13T02:59:45.323Z,4.80
2023-05-13T03:02:12.484Z,5.50
2023-05-13T03:04:41.191Z,5.13
2023-05-13T03:07:08.289Z,4.90
2023-05-13T03:09:35.103Z,5.60
2023-05-13T03:12:01.866Z,5.07
2023-05-13T03:14:28.953Z,4.97
2023-05-13T03:16:55.577Z,5.17
2023-05-13T03:19:22.687Z,5.17
2023-05-13T03:21:49.872Z,5.30
2023-05-13T03:24:17.320Z,5.33
2023-05-13T03:26:44.465Z,5.43
2023-05-13T03:29:11.614Z,5.07
2023-05-13T03:31:38.804Z,5.20
2023-05-13T03:34:06.513Z,4.97
2023-05-13T03:36:34.085Z,5.47
2023-05-13T03:39:01.589Z,5.40
2023-05-13T03:41:30.071Z,5.30
2023-05-13T03:43:59.407Z,5.93
2023-05-13T03:46:27.409Z,5.23
2023-05-13T03:48:55.806Z,5.47
2023-05-13T03:51:23.133Z,6.37
2023-05-13T03:53:50.893Z,5.83
2023-05-13T03:56:18.448Z,6.07
2023-05-13T03:58:45.985Z,5.80
2023-05-13T04:01:13.024Z,5.70
2023-05-13T04:03:41.167Z,6.40
2023-05-13T04:06:09.726Z,5.73
2023-05-13T04:08:36.886Z,6.10
2023-05-13T04:11:03.914Z,5.83
2023-05-13T04:13:30.963Z,5.73
2023-05-13T04:15:58.062Z,5.40
2023-05-13T04:18:25.259Z,5.77
2023-05-13T04:20:52.454Z,5.77
2023-05-13T04:23:19.500Z,5.30
2023-05-13T04:25:51.240Z,5.43
2023-05-13T04:28:18.698Z,5.70
2023-05-13T04:30:45.935Z,5.67
2023-05-13T04:33:13.129Z,5.20
2023-05-13T04:35:43.287Z,5.47
2023-05-13T04:38:10.426Z,5.33
2023-05-13T04:40:37.476Z,5.70
2023-05-13T04:43:12.055Z,5.60
2023-05-13T04:45:52.404Z,5.57
2023-05-13T04:48:19.578Z,5.90
2023-05-13T04:50:47.344Z,6.37
2023-05-13T04:53:15.897Z,5.83
2023-05-13T04:55:44.419Z,6.47
2023-05-13T04:58:11.495Z,6.10
2023-05-13T05:00:38.558Z,6.10
2023-05-13T05:03:05.358Z,5.57
2023-05-13T05:05:32.692Z,5.43
2023-05-13T05:07:59.816Z,5.73
2023-05-13T05:10:26.965Z,6.00
2023-05-13T05:12:58.689Z,5.97
2023-05-13T05:15:25.728Z,5.40
2023-05-13T05:17:56.996Z,5.80
2023-05-13T05:20:24.429Z,5.83
2023-05-13T05:22:53.484Z,6.13
2023-05-13T05:25:24.710Z,6.57
2023-05-13T05:27:51.738Z,6.27
2023-05-13T05:30:19.086Z,6.60
2023-05-13T05:32:50.771Z,6.23
2023-05-13T05:35:19.762Z,7.40
2023-05-13T05:37:46.858Z,7.63
2023-05-13T05:40:13.824Z,8.03
2023-05-13T05:42:41.370Z,7.37
2023-05-13T05:45:09.651Z,7.60
2023-05-13T05:47:37.541Z,8.00
2023-05-13T05:50:04.877Z,8.00
2023-05-13T05:52:31.620Z,7.33
2023-05-13T05:54:58.634Z,7.90
2023-05-13T05:57:25.769Z,6.93
2023-05-13T05:59:52.805Z,7.17
2023-05-13T06:02:19.883Z,6.93
2023-05-13T06:04:47.063Z,6.70
2023-05-13T06:07:14.232Z,6.67
2023-05-13T06:09:41.410Z,6.53
2023-05-13T06:12:08.818Z,6.13
2023-05-13T06:14:35.991Z,6.80
2023-05-13T06:17:03.359Z,6.50
2023-05-13T06:19:30.457Z,6.73
2023-05-13T06:21:57.715Z,6.27
2023-05-13T06:24:24.750Z,6.27
2023-05-13T06:26:51.819Z,7.20
2023-05-13T06:29:18.909Z,6.53
2023-05-13T06:31:46.419Z,6.53
2023-05-13T06:34:16.533Z,7.60
2023-05-13T06:36:44.063Z,6.70
2023-05-13T06:39:11.857Z,5.83
2023-05-13T06:41:40.191Z,6.37
2023-05-13T06:44:11.377Z,5.50
2023-05-13T06:46:39.903Z,6.23
2023-05-13T06:49:07.142Z,6.27
2023-05-13T06:51:34.862Z,6.77
2023-05-13T06:54:02.032Z,5.97
2023-05-13T06:56:30.118Z,5.67
2023-05-13T06:58:56.765Z,5.77
2023-05-13T07:01:23.512Z,5.27
2023-05-13T07:03:50.657Z,5.80
2023-05-13T07:06:17.822Z,5.37
2023-05-13T07:08:44.888Z,5.70
2023-05-13T07:11:11.489Z,5.47
2023-05-13T07:13:38.221Z,5.17
2023-05-13T07:16:05.630Z,4.57
2023-05-13T07:18:32.756Z,4.37
2023-05-13T07:20:59.438Z,4.77
2023-05-13T07:23:26.549Z,4.40
2023-05-13T07:25:53.201Z,4.60
2023-05-13T07:28:23.120Z,3.87
2023-05-13T07:30:50.584Z,4.10
2023-05-13T07:33:17.290Z,4.03
2023-05-13T07:35:44.077Z,3.73
2023-05-13T07:38:11.857Z,3.53
2023-05-13T07:40:39.457Z,3.80
2023-05-13T07:43:06.363Z,4.17
2023-05-13T07:45:33.200Z,3.70
2023-05-13T07:48:00.105Z,3.77
2023-05-13T07:50:26.876Z,3.30
2023-05-13T07:52:53.822Z,3.70
2023-05-13T07:55:21.511Z,3.53
2023-05-13T07:57:48.525Z,3.50
2023-05-13T08:00:15.752Z,4.13
2023-05-13T08:02:43.743Z,3.10
2023-05-13T08:05:11.204Z,3.53
2023-05-13T08:07:38.012Z,3.60
2023-05-13T08:10:05.130Z,3.10
2023-05-13T08:12:31.964Z,3.23
2023-05-13T08:14:58.686Z,2.97
2023-05-13T08:17:25.321Z,3.30
2023-05-13T08:19:51.979Z,2.90
2023-05-13T08:22:18.546Z,2.93
2023-05-13T08:24:45.320Z,3.13
2023-05-13T08:27:12.997Z,2.90
2023-05-13T08:29:39.705Z,3.13
2023-05-13T08:32:06.667Z,2.80
2023-05-13T08:34:33.596Z,3.20
2023-05-13T08:37:00.396Z,3.47
2023-05-13T08:39:27.066Z,3.00
2023-05-13T08:41:57.599Z,3.07
2023-05-13T08:44:28.981Z,3.30
2023-05-13T08:47:16.256Z,2.80
2023-05-13T08:49:42.980Z,3.20
2023-05-13T08:52:09.576Z,3.63
2023-05-13T08:54:38.153Z,3.37
2023-05-13T08:57:05.182Z,3.13
2023-05-13T08:59:31.822Z,3.30
2023-05-13T09:02:03.059Z,2.93
2023-05-13T09:04:29.901Z,3.57
2023-05-13T09:06:56.655Z,3.20
2023-05-13T09:09:23.849Z,3.07
2023-05-13T09:11:50.542Z,3.00
2023-05-13T09:14:19.500Z,2.97
2023-05-13T09:16:47.746Z,2.63
2023-05-13T09:19:14.536Z,3.27
2023-05-13T09:21:43.683Z,3.03
2023-05-13T09:24:11.788Z,3.17
2023-05-13T09:26:40.470Z,3.30
2023-05-13T09:29:29.182Z,3.30
2023-05-13T09:31:58.885Z,2.83
2023-05-13T09:34:30.604Z,3.20
2023-05-13T09:36:58.061Z,3.10
2023-05-13T09:39:24.893Z,3.83
2023-05-13T09:41:52.889Z,3.17
2023-05-13T09:44:20.216Z,3.73
2023-05-13T09:46:47.013Z,3.17
2023-05-13T09:49:15.474Z,3.40
2023-05-13T09:51:44.912Z,3.03
2023-05-13T09:54:12.919Z,3.30
2023-05-13T09:56:39.848Z,3.10
2023-05-13T09:59:06.544Z,3.13
2023-05-13T10:01:35.521Z,2.90
2023-05-13T10:04:05.912Z,2.97
2023-05-13T10:06:34.042Z,3.33
2023-05-13T10:09:04.693Z,3.27
2023-05-13T10:11:35.307Z,3.20
2023-05-13T10:14:05.107Z,2.73
2023-05-13T10:16:35.622Z,2.90
2023-05-13T10:19:03.952Z,2.47
2023-05-13T10:21:31.476Z,2.57
2023-05-13T10:23:58.827Z,2.63
2023-05-13T10:26:26.099Z,3.10
2023-05-13T10:28:54.733Z,2.70
2023-05-13T10:31:21.977Z,2.90
2023-05-13T10:33:49.082Z,3.00
2023-05-13T10:36:44.962Z,3.00
2023-05-13T10:39:44.044Z,2.90
2023-05-13T10:42:36.252Z,3.10
2023-05-13T10:45:03.185Z,2.73
2023-05-13T10:47:33.719Z,3.07
2023-05-13T10:50:04.934Z,3.00
2023-05-13T10:52:47.688Z,2.70
2023-05-13T10:55:19.566Z,2.50
2023-05-13T10:58:12.049Z,2.90
2023-05-13T11:00:41.047Z,3.37
2023-05-13T11:03:19.588Z,2.90
2023-05-13T11:06:14.491Z,3.30
2023-05-13T11:08:43.181Z,2.50
2023-05-13T11:11:22.379Z,3.13
2023-05-13T11:13:54.088Z,2.80
2023-05-13T11:16:22.078Z,3.27
2023-05-13T11:18:49.500Z,3.10
2023-05-13T11:21:16.503Z,3.20
2023-05-13T11:24:04.085Z,3.03
2023-05-13T11:26:53.067Z,2.83
2023-05-13T11:29:30.824Z,3.00
2023-05-13T11:32:00.634Z,2.60
2023-05-13T11:34:27.746Z,2.87
2023-05-13T11:37:08.418Z,3.13
2023-05-13T11:39:36.025Z,3.60
2023-05-13T11:42:07.864Z,3.53
2023-05-13T11:44:35.666Z,2.87
2023-05-13T11:47:05.833Z,3.10
2023-05-13T11:49:38.730Z,3.40
2023-05-13T11:52:15.064Z,2.97
2023-05-13T11:54:43.209Z,3.33
2023-05-13T11:57:23.680Z,2.57
2023-05-13T11:59:54.955Z,3.13
2023-05-13T12:02:26.665Z,3.10
2023-05-13T12:04:53.517Z,3.10
2023-05-13T12:07:24.605Z,3.07
2023-05-13T12:09:52.860Z,2.83
2023-05-13T12:12:20.202Z,2.60
2023-05-13T12:14:50.263Z,2.77
2023-05-13T12:17:18.384Z,2.53
2023-05-13T12:20:05.892Z,3.10
2023-05-13T12:22:33.417Z,2.77
2023-05-13T12:25:02.632Z,2.80
2023-05-13T12:27:29.262Z,2.77
2023-05-13T12:29:56.203Z,2.70
2023-05-13T12:32:24.773Z,2.90
2023-05-13T12:34:51.956Z,2.83
2023-05-13T12:37:18.649Z,2.63
2023-05-13T12:39:45.712Z,2.87
2023-05-13T12:42:16.720Z,2.80
2023-05-13T12:44:45.076Z,2.30
2023-05-13T12:47:13.125Z,2.50
2023-05-13T12:49:58.106Z,2.50
2023-05-13T12:52:25.215Z,2.83
2023-05-13T12:54:51.863Z,2.70
2023-05-13T12:57:20.455Z,2.90
2023-05-13T12:59:47.185Z,2.83
2023-05-13T13:02:14.217Z,2.50
2023-05-13T13:04:41.378Z,2.90
2023-05-13T13:07:12.579Z,2.70
2023-05-13T13:09:39.700Z,3.10
2023-05-13T13:12:06.674Z,2.60
2023-05-13T13:14:33.462Z,2.70
2023-05-13T13:17:01.485Z,2.87
2023-05-13T13:19:28.678Z,2.37
2023-05-13T13:21:55.419Z,2.90
2023-05-13T13:24:22.004Z,2.77
2023-05-13T13:26:49.918Z,2.77
2023-05-13T13:29:16.562Z,2.57
2023-05-13T13:31:43.659Z,2.23
2023-05-13T13:34:12.009Z,2.30
2023-05-13T13:36:38.691Z,2.97
2023-05-13T13:39:05.657Z,2.90
2023-05-13T13:41:32.301Z,3.43
2023-05-13T13:43:58.883Z,3.20
2023-05-13T13:46:26.063Z,2.90
2023-05-13T13:48:52.767Z,3.63
2023-05-13T13:51:19.824Z,2.70
2023-05-13T13:53:46.844Z,2.20
2023-05-13T13:56:13.915Z,2.57
2023-05-13T13:58:41.031Z,2.37
2023-05-13T14:01:07.681Z,2.60
2023-05-13T14:03:34.753Z,2.73
2023-05-13T14:06:01.918Z,2.70
2023-05-13T14:08:28.514Z,2.70
2023-05-13T14:10:55.242Z,2.43
2023-05-13T14:13:21.816Z,2.67
2023-05-13T14:15:48.506Z,2.73
2023-05-13T14:18:15.188Z,2.50
2023-05-13T14:20:41.938Z,2.57
2023-05-13T14:23:09.003Z,2.60
2023-05-13T14:25:35.670Z,3.03
2023-05-13T14:28:02.250Z,2.73
2023-05-13T14:30:28.966Z,2.30
2023-05-13T14:32:55.621Z,2.80
2023-05-13T14:35:22.690Z,2.43
2023-05-13T14:37:49.742Z,2.50
2023-05-13T14:40:16.768Z,2.47
2023-05-13T14:42:43.548Z,2.70
2023-05-13T14:45:14.532Z,2.40
2023-05-13T14:47:43.171Z,2.47
2023-05-13T14:50:12.177Z,2.70
2023-05-13T14:52:39.216Z,2.40
2023-05-13T14:55:06.182Z,2.70
2023-05-13T14:57:33.403Z,2.43
2023-05-13T15:00:00.214Z,2.17
2023-05-13T15:02:27.147Z,2.27
2023-05-13T15:04:53.880Z,2.20
2023-05-13T15:07:20.593Z,2.60
2023-05-13T15:09:47.745Z,2.47
2023-05-13T15:12:14.322Z,2.00
2023-05-13T15:14:41.356Z,2.13
2023-05-13T15:17:11.762Z,2.60
2023-05-13T15:19:38.982Z,2.60
2023-05-13T15:22:06.086Z,2.70
2023-05-13T15:24:33.185Z,2.20
2023-05-13T15:27:01.354Z,2.20
2023-05-13T15:29:28.424Z,2.00
2023-05-13T15:31:55.500Z,2.00
2023-05-13T15:34:22.539Z,2.20
2023-05-13T15:36:49.543Z,2.40
2023-05-13T15:39:18.964Z,2.70
2023-05-13T15:41:45.551Z,2.30
2023-05-13T15:44:12.385Z,2.30
2023-05-13T15:46:39.508Z,2.50
2023-05-13T15:49:06.496Z,2.30
2023-05-13T15:51:33.707Z,2.80
2023-05-13T15:54:00.565Z,2.73
2023-05-13T15:56:27.240Z,2.90
2023-05-13T15:58:55.751Z,2.57
2023-05-13T16:01:22.470Z,2.23
2023-05-13T16:03:49.281Z,2.60
2023-05-13T16:06:15.923Z,2.47
2023-05-13T16:08:42.592Z,2.47
2023-05-13T16:11:09.863Z,2.53
2023-05-13T16:13:36.501Z,2.73
2023-05-13T16:16:03.269Z,2.37
2023-05-13T16:18:29.941Z,2.33
2023-05-13T16:20:56.722Z,3.00
2023-05-13T16:23:23.830Z,2.20
2023-05-13T16:25:50.468Z,2.27
2023-05-13T16:28:17.072Z,2.03
2023-05-13T16:30:44.263Z,2.40
2023-05-13T16:33:11.495Z,1.90
2023-05-13T16:35:38.652Z,2.43
2023-05-13T16:38:05.894Z,2.40
2023-05-13T16:40:32.612Z,2.73
2023-05-13T16:43:02.596Z,2.20
2023-05-13T16:45:31.092Z,2.20
2023-05-13T16:47:57.777Z,2.13
2023-05-13T16:50:24.679Z,2.10
2023-05-13T16:52:51.585Z,1.73
2023-05-13T16:55:18.249Z,2.17
2023-05-13T16:57:46.734Z,2.10
2023-05-13T17:00:14.432Z,2.27
2023-05-13T17:02:41.214Z,2.30
2023-05-13T17:05:08.139Z,1.90
2023-05-13T17:07:35.213Z,2.20
2023-05-13T17:10:01.780Z,1.97
2023-05-13T17:12:28.872Z,2.07
2023-05-13T17:14:56.167Z,2.00
2023-05-13T17:17:22.844Z,2.27
2023-05-13T17:19:50.228Z,1.90
2023-05-13T17:22:17.258Z,1.90
2023-05-13T17:24:43.807Z,2.10
2023-05-13T17:27:10.691Z,2.07
2023-05-13T17:29:37.480Z,2.10
2023-05-13T17:32:04.479Z,1.87
2023-05-13T17:34:31.533Z,2.30
2023-05-13T17:36:58.554Z,1.97
2023-05-13T17:39:25.569Z,2.00
2023-05-13T17:41:52.169Z,1.90
2023-05-13T17:44:19.960Z,1.90
2023-05-13T17:46:46.550Z,1.87
2023-05-13T17:49:13.246Z,1.83
2023-05-13T17:51:41.816Z,1.80
2023-05-13T17:54:11.035Z,1.70
2023-05-13T17:56:38.132Z,2.07
2023-05-13T17:59:05.363Z,1.60
2023-05-13T18:01:32.437Z,2.23
2023-05-13T18:03:59.558Z,1.70
2023-05-13T18:06:26.633Z,2.00
2023-05-13T18:08:53.982Z,1.80
2023-05-13T18:11:22.123Z,2.10
2023-05-13T18:13:49.263Z,1.87
2023-05-13T18:16:19.265Z,2.10
2023-05-13T18:18:48.423Z,1.80
2023-05-13T18:21:15.685Z,1.73
2023-05-13T18:23:44.074Z,1.80
2023-05-13T18:26:10.730Z,1.90
2023-05-13T18:28:37.829Z,2.07
2023-05-13T18:31:04.441Z,1.97
2023-05-13T18:33:31.044Z,1.90
2023-05-13T18:35:57.690Z,2.10
2023-05-13T18:38:24.726Z,1.80
2023-05-13T18:40:51.741Z,1.80
2023-05-13T18:43:18.780Z,2.23
2023-05-13T18:45:45.715Z,2.03
2023-05-13T18:48:12.811Z,2.03
2023-05-13T18:50:39.454Z,2.00
2023-05-13T18:53:06.728Z,2.13
2023-05-13T18:55:33.387Z,2.53
2023-05-13T18:57:59.983Z,2.10
2023-05-13T19:00:27.043Z,2.00
2023-05-13T19:02:53.809Z,2.50
2023-05-13T19:05:20.853Z,2.20
2023-05-13T19:07:47.465Z,2.10
2023-05-13T19:10:14.546Z,2.20
2023-05-13T19:12:41.705Z,2.50
2023-05-13T19:15:09.048Z,2.33
2023-05-13T19:17:39.005Z,2.83
2023-05-13T19:20:07.947Z,2.30
2023-05-13T19:22:35.028Z,2.63
2023-05-13T19:25:01.585Z,2.63
2023-05-13T19:27:28.304Z,2.30
2023-05-13T19:29:55.498Z,2.40
2023-05-13T19:32:22.092Z,2.40
2023-05-13T19:34:49.180Z,2.40
2023-05-13T19:37:16.212Z,2.40
2023-05-13T19:39:43.227Z,2.67
2023-05-13T19:42:10.400Z,2.30
2023-05-13T19:44:37.496Z,2.13
2023-05-13T19:47:05.660Z,2.53
2023-05-13T19:49:32.737Z,2.50
2023-05-13T19:51:59.879Z,2.50
2023-05-13T19:54:26.549Z,2.47
2023-05-13T19:56:53.846Z,2.73
2023-05-13T19:59:20.925Z,2.67
2023-05-13T20:01:48.024Z,2.20
2023-05-13T20:04:15.207Z,2.57
2023-05-13T20:06:42.351Z,2.73
2023-05-13T20:09:10.380Z,2.50
2023-05-13T20:11:37.425Z,3.57
2023-05-13T20:14:04.457Z,3.50
2023-05-13T20:16:31.464Z,3.13
2023-05-13T20:18:58.763Z,2.93
2023-05-13T20:21:25.865Z,2.97
2023-05-13T20:23:52.892Z,2.70
2023-05-13T20:26:19.511Z,2.40
2023-05-13T20:28:47.685Z,2.37
2023-05-13T20:31:14.982Z,2.47
2023-05-13T20:33:42.299Z,2.93
2023-05-13T20:36:09.378Z,2.53
2023-05-13T20:38:36.256Z,2.80
2023-05-13T20:41:03.279Z,2.40
2023-05-13T20:43:31.103Z,2.63
2023-05-13T20:45:57.744Z,2.77
2023-05-13T20:48:24.819Z,2.43
2023-05-13T20:50:58.683Z,2.90
2023-05-13T20:53:25.846Z,3.07
2023-05-13T20:55:52.431Z,3.07
2023-05-13T20:58:19.483Z,3.00
2023-05-13T21:00:46.558Z,2.73
2023-05-13T21:03:13.760Z,2.83
2023-05-13T21:05:40.855Z,3.20
2023-05-13T21:08:07.880Z,3.10
2023-05-13T21:10:34.956Z,2.53
2023-05-13T21:13:02.073Z,3.00
2023-05-13T21:15:29.233Z,2.80
2023-05-13T21:17:56.321Z,3.60
2023-05-13T21:20:23.629Z,3.13
2023-05-13T21:22:51.217Z,3.43
2023-05-13T21:25:18.334Z,3.93
2023-05-13T21:27:45.735Z,3.20
2023-05-13T21:30:13.400Z,3.47
2023-05-13T21:32:40.552Z,3.20
2023-05-13T21:35:07.739Z,3.97
2023-05-13T21:37:34.788Z,3.83
2023-05-13T21:40:01.823Z,3.73
2023-05-13T21:42:28.412Z,4.13
2023-05-13T21:44:55.224Z,4.80
2023-05-13T21:47:22.439Z,4.27
2023-05-13T21:49:49.516Z,4.57
2023-05-13T21:52:16.757Z,4.17
2023-05-13T21:54:43.807Z,4.53
2023-05-13T21:57:11.130Z,3.77
2023-05-13T21:59:38.154Z,4.27
2023-05-13T22:02:05.307Z,4.30
2023-05-13T22:04:32.398Z,4.27
2023-05-13T22:06:59.439Z,4.10
2023-05-13T22:09:26.479Z,4.80
2023-05-13T22:11:53.491Z,4.50
2023-05-13T22:14:20.583Z,4.00
2023-05-13T22:16:54.566Z,3.70
2023-05-13T22:19:29.110Z,4.20
2023-05-13T22:21:56.193Z,3.63
2023-05-13T22:24:23.223Z,3.80
2023-05-13T22:26:50.306Z,3.80
2023-05-13T22:29:16.900Z,3.97
2023-05-13T22:31:43.986Z,3.70
2023-05-13T22:34:11.050Z,3.97
2023-05-13T22:36:37.645Z,3.70
2023-05-13T22:39:06.125Z,3.70
2023-05-13T22:41:33.171Z,3.80
2023-05-13T22:44:00.304Z,4.57
2023-05-13T22:46:27.358Z,3.87
2023-05-13T22:48:54.392Z,3.83
2023-05-13T22:51:21.436Z,4.23
2023-05-13T22:53:48.051Z,3.90
2023-05-13T22:56:15.234Z,3.73
2023-05-13T22:58:42.243Z,3.60
2023-05-13T23:01:09.324Z,4.30
2023-05-13T23:03:36.556Z,4.20
2023-05-13T23:06:03.856Z,4.07
2023-05-13T23:08:31.066Z,3.70
2023-05-13T23:10:58.082Z,3.63
2023-05-13T23:13:25.116Z,4.30
2023-05-13T23:15:52.196Z,4.13
2023-05-13T23:18:19.248Z,3.83
2023-05-13T23:20:51.087Z,4.40
2023-05-13T23:23:18.115Z,3.93
2023-05-13T23:25:45.740Z,3.77
2023-05-13T23:28:12.803Z,3.73
2023-05-13T23:30:40.030Z,4.60
2023-05-13T23:33:07.468Z,4.13
2023-05-13T23:35:34.624Z,4.60
2023-05-13T23:38:01.836Z,4.30
2023-05-13T23:40:28.864Z,3.83
2023-05-13T23:42:55.931Z,4.03
2023-05-13T23:45:22.988Z,4.50
2023-05-13T23:47:50.506Z,4.47
2023-05-13T23:50:17.186Z,4.30
2023-05-13T23:52:44.220Z,4.10
2023-05-13T23:55:11.308Z,4.23
2023-05-13T23:57:38.362Z,4.33
